Time;durP1;ratioP1;P1;durP2;ratioP2;P2;SDS_P1;SDS_P2;PMS_P1;PMS_P2;Temp;Humidity;BMP_temperature;BMP_pressure;BME280_temperature;BME280_humidity;BME280_pressure;Samples;Min_cycle;Max_cycle;Signal;HPM_P1;HPM_P2
2023/01/25 00:01:20;;;;;;;1999.90;999.90;;;;;;;1.18;100.00;95358.72;5068037;28;20194;-64
2023/01/25 00:03:45;;;;;;;1999.90;999.90;;;;;;;1.15;100.00;95370.16;5068518;28;20175;-63
2023/01/25 00:06:11;;;;;;;1999.90;999.90;;;;;;;1.06;100.00;95361.44;5068127;28;20161;-63
2023/01/25 00:08:37;;;;;;;1999.90;999.90;;;;;;;1.11;100.00;95358.53;5067934;28;20170;-63
2023/01/25 00:11:03;;;;;;;1999.90;999.90;;;;;;;1.02;100.00;95371.31;5067870;28;20163;-64
2023/01/25 00:13:28;;;;;;;1999.90;999.90;;;;;;;1.01;100.00;95359.03;5068360;28;20168;-63
2023/01/25 00:16:00;;;;;;;1999.90;999.90;;;;;;;1.05;100.00;95367.97;5067944;28;20398;-63
2023/01/25 00:18:25;;;;;;;1999.90;999.90;;;;;;;1.09;100.00;95366.16;5068267;28;20205;-63
2023/01/25 00:20:51;;;;;;;1999.90;999.90;;;;;;;1.09;100.00;95360.00;5067889;28;20188;-64
2023/01/25 00:23:16;;;;;;;1999.90;999.90;;;;;;;1.13;100.00;95355.50;5067702;28;20332;-64
2023/01/25 00:25:41;;;;;;;1999.90;999.90;;;;;;;1.15;100.00;95356.72;5067673;28;20169;-64
2023/01/25 00:28:07;;;;;;;1999.90;999.90;;;;;;;1.15;100.00;95364.78;5068241;28;20211;-63
2023/01/25 00:30:32;;;;;;;1999.90;999.90;;;;;;;1.06;100.00;95368.75;5067598;28;20165;-63
2023/01/25 00:33:23;;;;;;;1999.90;999.90;;;;;;;1.05;100.00;95353.75;5067808;28;20169;-63
2023/01/25 00:35:49;;;;;;;1999.90;999.90;;;;;;;1.10;100.00;95358.88;5068229;28;20159;-63
2023/01/25 00:38:28;;;;;;;1999.90;999.90;;;;;;;1.09;100.00;95360.00;5068321;28;20192;-67
2023/01/25 00:40:54;;;;;;;1999.90;999.90;;;;;;;1.15;100.00;95358.59;5068038;28;20171;-63
2023/01/25 00:43:19;;;;;;;1999.90;999.90;;;;;;;1.07;100.00;95359.56;5067922;28;20188;-64
2023/01/25 00:45:45;;;;;;;1999.90;999.90;;;;;;;1.06;100.00;95348.00;5067641;28;20172;-63
2023/01/25 00:48:10;;;;;;;1999.90;999.90;;;;;;;1.12;100.00;95357.41;5068044;28;20175;-63
2023/01/25 00:50:36;;;;;;;1999.90;999.90;;;;;;;1.08;100.00;95351.16;5067143;28;20230;-63
2023/01/25 00:53:02;;;;;;;1999.90;999.90;;;;;;;1.03;100.00;95356.78;5067703;28;20172;-64
2023/01/25 00:55:27;;;;;;;1999.90;999.90;;;;;;;1.03;100.00;95359.47;5066645;28;20173;-66
2023/01/25 00:57:52;;;;;;;1999.90;999.90;;;;;;;1.03;100.00;95354.09;5067817;28;20196;-64
2023/01/25 01:00:18;;;;;;;1999.90;999.90;;;;;;;1.04;100.00;95350.28;5067173;28;20179;-65
2023/01/25 01:02:43;;;;;;;1999.90;999.90;;;;;;;1.00;100.00;95357.47;5067166;28;20177;-64
2023/01/25 01:05:09;;;;;;;1999.90;999.90;;;;;;;1.02;100.00;95360.56;5067291;28;20174;-65
2023/01/25 01:07:34;;;;;;;1999.90;999.90;;;;;;;0.93;100.00;95357.28;5067553;28;20168;-64
2023/01/25 01:09:59;;;;;;;1999.90;999.90;;;;;;;0.97;100.00;95363.53;5067106;28;20206;-66
2023/01/25 01:12:25;;;;;;;1999.90;999.90;;;;;;;0.95;100.00;95365.75;5067101;28;20239;-65
2023/01/25 01:14:50;;;;;;;1999.90;999.90;;;;;;;0.90;100.00;95357.16;5067958;28;20172;-65
2023/01/25 01:17:15;;;;;;;1999.90;999.90;;;;;;;0.90;100.00;95359.84;5067389;28;20171;-64
2023/01/25 01:19:41;;;;;;;1999.90;999.90;;;;;;;0.83;100.00;95368.50;5066868;28;20235;-63
2023/01/25 01:22:06;;;;;;;1999.90;999.90;;;;;;;0.91;100.00;95359.50;5067309;28;20167;-64
2023/01/25 01:24:32;;;;;;;1999.90;999.90;;;;;;;0.85;100.00;95360.88;5067010;28;20248;-63
2023/01/25 01:26:57;;;;;;;1999.90;999.90;;;;;;;0.86;100.00;95365.13;5067088;28;20165;-64
2023/01/25 01:29:23;;;;;;;1999.90;999.90;;;;;;;0.88;100.00;95356.72;5067675;28;20170;-63
2023/01/25 01:31:50;;;;;;;1999.90;999.90;;;;;;;0.90;100.00;95351.78;5067489;28;20162;-63
2023/01/25 01:34:16;;;;;;;1999.90;999.90;;;;;;;0.90;100.00;95346.41;5067478;28;20168;-64
2023/01/25 01:36:42;;;;;;;1999.90;999.90;;;;;;;0.96;100.00;95348.53;5067727;28;20163;-64
2023/01/25 01:39:07;;;;;;;1999.90;999.90;;;;;;;0.88;100.00;95341.41;5066898;28;20247;-64
2023/01/25 01:41:33;;;;;;;1999.90;999.90;;;;;;;0.92;100.00;95339.59;5066994;28;20172;-64
2023/01/25 01:43:59;;;;;;;1999.90;999.90;;;;;;;0.86;100.00;95348.22;5066774;28;20172;-62
2023/01/25 01:46:28;;;;;;;1999.90;999.90;;;;;;;0.86;100.00;95346.31;5066610;28;20172;-62
2023/01/25 01:49:06;;;;;;;1999.90;999.90;;;;;;;0.86;100.00;95340.16;5066607;28;20171;-62
2023/01/25 01:51:42;;;;;;;1999.90;999.90;;;;;;;0.89;100.00;95345.66;5067196;28;20174;-62
2023/01/25 01:54:13;;;;;;;1999.90;999.90;;;;;;;0.88;100.00;95345.97;5066630;28;20197;-62
2023/01/25 01:56:50;;;;;;;1999.90;999.90;;;;;;;0.86;100.00;95348.22;5066891;28;20206;-63
2023/01/25 01:59:16;;;;;;;1999.90;999.90;;;;;;;0.86;100.00;95343.63;5067172;28;20425;-63
2023/01/25 02:01:43;;;;;;;1999.90;999.90;;;;;;;0.88;100.00;95338.72;5066916;28;20174;-65
2023/01/25 02:04:11;;;;;;;1999.90;999.90;;;;;;;0.87;100.00;95342.50;5067086;28;20170;-65
2023/01/25 02:07:12;;;;;;;1999.90;999.90;;;;;;;0.86;100.00;95334.78;5067457;28;20212;-65
2023/01/25 02:09:38;;;;;;;1999.90;999.90;;;;;;;0.79;100.00;95345.34;5070243;28;20171;-64
2023/01/25 02:12:06;;;;;;;1999.90;999.90;;;;;;;0.74;100.00;95348.28;5070249;28;20247;-63
2023/01/25 02:14:33;;;;;;;1999.90;999.90;;;;;;;0.79;100.00;95340.75;5070579;28;20178;-63
2023/01/25 02:16:58;;;;;;;1999.90;999.90;;;;;;;0.75;100.00;95350.63;5070123;28;20176;-63
2023/01/25 02:19:39;;;;;;;1999.90;999.90;;;;;;;0.81;100.00;95345.78;5070467;28;20224;-64
2023/01/25 02:22:12;;;;;;;1999.90;999.90;;;;;;;0.75;100.00;95345.25;5070220;28;20184;-63
2023/01/25 02:24:45;;;;;;;1999.90;999.90;;;;;;;0.73;100.00;95346.72;5070453;28;20176;-64
2023/01/25 02:27:10;;;;;;;1999.90;999.90;;;;;;;0.74;100.00;95324.88;5070253;28;20176;-63
2023/01/25 02:29:36;;;;;;;1999.90;999.90;;;;;;;0.77;100.00;95329.59;5070403;28;20255;-63
2023/01/25 02:32:04;;;;;;;1999.90;999.90;;;;;;;0.78;100.00;95333.03;5069823;28;20183;-63
2023/01/25 02:34:30;;;;;;;1999.90;999.90;;;;;;;0.74;100.00;95332.16;5070598;28;20248;-64
2023/01/25 02:36:55;;;;;;;1999.90;999.90;;;;;;;0.75;100.00;95339.09;5070235;28;20194;-64
2023/01/25 02:39:24;;;;;;;1999.90;999.90;;;;;;;0.76;100.00;95336.06;5069920;28;20212;-64
2023/01/25 02:41:49;;;;;;;1999.90;999.90;;;;;;;0.82;100.00;95326.63;5069658;28;20500;-64
2023/01/25 02:44:28;;;;;;;1999.90;999.90;;;;;;;0.82;100.00;95328.53;5069649;28;20173;-63
2023/01/25 02:46:53;;;;;;;1999.90;999.90;;;;;;;0.85;100.00;95328.66;5069934;28;20209;-64
2023/01/25 02:49:19;;;;;;;1999.90;999.90;;;;;;;0.84;100.00;95310.94;5069442;28;20227;-64
2023/01/25 02:51:47;;;;;;;1999.90;999.90;;;;;;;0.86;100.00;95324.03;5069402;28;20199;-64
2023/01/25 02:54:16;;;;;;;1999.90;999.90;;;;;;;0.82;100.00;95309.72;5069541;28;20192;-64
2023/01/25 02:56:42;;;;;;;1999.90;999.90;;;;;;;0.88;100.00;95322.59;5069928;28;20168;-64
2023/01/25 02:59:09;;;;;;;1999.90;999.90;;;;;;;0.80;100.00;95326.19;5069258;28;20444;-65
2023/01/25 03:01:39;;;;;;;1999.90;999.90;;;;;;;0.86;100.00;95316.75;5069912;28;20169;-65
2023/01/25 03:04:05;;;;;;;1999.90;999.90;;;;;;;0.85;100.00;95317.91;5069015;28;20176;-66
2023/01/25 03:06:31;;;;;;;1999.90;999.90;;;;;;;0.91;100.00;95316.50;5069562;28;20232;-66
2023/01/25 03:08:57;;;;;;;1999.90;999.90;;;;;;;0.89;100.00;95308.03;5069694;28;20188;-65
2023/01/25 03:11:22;;;;;;;1999.90;999.90;;;;;;;0.91;100.00;95310.38;5069331;28;20172;-64
2023/01/25 03:13:47;;;;;;;1999.90;999.90;;;;;;;0.88;100.00;95308.38;5069179;28;20173;-64
2023/01/25 03:16:13;;;;;;;1999.90;999.90;;;;;;;0.93;100.00;95298.16;5069087;28;20240;-64
2023/01/25 03:18:39;;;;;;;1999.90;999.90;;;;;;;0.86;100.00;95314.06;5068263;28;20241;-64
2023/01/25 03:21:13;;;;;;;1999.90;999.90;;;;;;;0.84;100.00;95305.56;5069389;28;20225;-64
2023/01/25 03:23:39;;;;;;;1999.90;999.90;;;;;;;0.89;100.00;95313.41;5069224;28;20172;-67
2023/01/25 03:26:06;;;;;;;1999.90;999.90;;;;;;;0.88;100.00;95306.47;5068822;28;20190;-66
2023/01/25 03:28:31;;;;;;;1999.90;999.90;;;;;;;0.76;100.00;95303.06;5068689;28;20176;-66
2023/01/25 03:30:57;;;;;;;1999.90;999.90;;;;;;;0.76;100.00;95298.44;5068797;28;20199;-66
2023/01/25 03:33:22;;;;;;;1999.90;999.90;;;;;;;0.72;100.00;95308.31;5069374;28;20360;-66
2023/01/25 03:35:51;;;;;;;1999.90;999.90;;;;;;;0.77;100.00;95308.09;5069196;28;20171;-66
2023/01/25 03:38:18;;;;;;;1999.90;999.90;;;;;;;0.74;100.00;95313.34;5069119;28;20194;-66
2023/01/25 03:40:43;;;;;;;1999.90;999.90;;;;;;;0.71;100.00;95319.41;5069157;28;20170;-65
2023/01/25 03:43:09;;;;;;;1999.90;999.90;;;;;;;0.75;100.00;95313.00;5069252;28;20187;-65
2023/01/25 03:45:34;;;;;;;1999.90;999.90;;;;;;;0.79;100.00;95313.88;5068983;28;20232;-67
2023/01/25 03:47:59;;;;;;;1999.90;999.90;;;;;;;0.71;100.00;95312.13;5068924;28;20176;-65
2023/01/25 03:50:25;;;;;;;1999.90;999.90;;;;;;;0.82;100.00;95302.47;5067924;28;20220;-65
2023/01/25 03:52:57;;;;;;;1999.90;999.90;;;;;;;0.75;100.00;95302.25;5068627;28;20175;-66
2023/01/25 03:55:23;;;;;;;1999.90;999.90;;;;;;;0.78;100.00;95301.59;5068248;28;20164;-64
2023/01/25 03:57:48;;;;;;;1999.90;999.90;;;;;;;0.85;100.00;95299.09;5068087;28;20200;-65
2023/01/25 04:00:14;;;;;;;1999.90;999.90;;;;;;;0.78;100.00;95306.94;5068643;28;20168;-64
2023/01/25 04:02:40;;;;;;;1999.90;999.90;;;;;;;0.86;100.00;95303.31;5067790;28;20198;-66
2023/01/25 04:05:06;;;;;;;1999.90;999.90;;;;;;;0.84;100.00;95305.56;5068102;28;20167;-65
2023/01/25 04:07:32;;;;;;;1999.90;999.90;;;;;;;0.82;100.00;95305.13;5067693;28;20169;-64
2023/01/25 04:09:58;;;;;;;1999.90;999.90;;;;;;;0.77;100.00;95315.34;5068077;28;20169;-65
2023/01/25 04:12:23;;;;;;;1999.90;999.90;;;;;;;0.81;100.00;95308.97;5068550;28;20244;-64
2023/01/25 04:14:48;;;;;;;1999.90;999.90;;;;;;;0.75;100.00;95302.25;5068425;28;20172;-65
2023/01/25 04:17:14;;;;;;;1999.90;999.90;;;;;;;0.79;100.00;95311.19;5067867;28;20171;-63
2023/01/25 04:19:39;;;;;;;1999.90;999.90;;;;;;;0.77;100.00;95305.41;5067608;28;20215;-64
2023/01/25 04:22:05;;;;;;;1999.90;999.90;;;;;;;0.78;100.00;95301.59;5068325;28;20168;-65
2023/01/25 04:24:30;;;;;;;1999.90;999.90;;;;;;;0.73;100.00;95296.44;5068019;28;20176;-65
2023/01/25 04:26:55;;;;;;;1999.90;999.90;;;;;;;0.82;100.00;95285.53;5068008;28;20333;-65
2023/01/25 04:29:21;;;;;;;1999.90;999.90;;;;;;;0.84;100.00;95286.75;5068078;28;20175;-65
2023/01/25 04:31:46;;;;;;;1999.90;999.90;;;;;;;0.82;100.00;95290.91;5067239;28;20165;-64
2023/01/25 04:34:11;;;;;;;1999.90;999.90;;;;;;;0.76;100.00;95298.44;5068004;28;20195;-64
2023/01/25 04:36:37;;;;;;;1999.90;999.90;;;;;;;0.78;100.00;95295.41;5067520;28;20190;-64
2023/01/25 04:39:02;;;;;;;1999.90;999.90;;;;;;;0.80;100.00;95293.94;5067404;28;20196;-64
2023/01/25 04:41:28;;;;;;;1999.90;999.90;;;;;;;0.82;100.00;95288.22;5067447;28;20172;-65
2023/01/25 04:43:53;;;;;;;1999.90;999.90;;;;;;;0.88;100.00;95284.97;5067444;28;20167;-64
2023/01/25 04:46:19;;;;;;;1999.90;999.90;;;;;;;0.87;100.00;95283.38;5067902;28;20167;-64
2023/01/25 04:48:44;;;;;;;1999.90;999.90;;;;;;;0.94;100.00;95282.81;5067411;28;20273;-64
2023/01/25 04:51:09;;;;;;;1999.90;999.90;;;;;;;0.88;100.00;95284.19;5067946;28;20179;-64
2023/01/25 04:53:35;;;;;;;1999.90;999.90;;;;;;;0.79;100.00;95287.00;5067598;28;20175;-65
2023/01/25 04:56:00;;;;;;;1999.90;999.90;;;;;;;0.71;100.00;95282.59;5067535;28;20175;-66
2023/01/25 04:58:26;;;;;;;1999.90;999.90;;;;;;;0.65;100.00;95281.25;5067791;28;20203;-65
2023/01/25 05:00:51;;;;;;;1999.90;999.90;;;;;;;0.64;100.00;95285.06;5067292;28;20169;-66
2023/01/25 05:03:16;;;;;;;1999.90;999.90;;;;;;;0.62;100.00;95265.81;5067673;28;20207;-65
2023/01/25 05:05:46;;;;;;;1999.90;999.90;;;;;;;0.70;100.00;95269.50;5067132;28;20178;-65
2023/01/25 05:08:12;;;;;;;1999.90;999.90;;;;;;;0.70;100.00;95262.22;5067015;28;20183;-64
2023/01/25 05:10:37;;;;;;;1999.90;999.90;;;;;;;0.63;100.00;95275.47;5067060;28;20176;-65
2023/01/25 05:13:03;;;;;;;1999.90;999.90;;;;;;;0.58;100.00;95270.31;5067525;28;20180;-64
2023/01/25 05:15:28;;;;;;;1999.90;999.90;;;;;;;0.61;100.00;95272.31;5067014;28;20421;-65
2023/01/25 05:17:53;;;;;;;1999.90;999.90;;;;;;;0.59;100.00;95279.97;5066834;28;20397;-65
2023/01/25 05:20:19;;;;;;;1999.90;999.90;;;;;;;0.61;100.00;95277.69;5066949;28;20193;-66
2023/01/25 05:22:44;;;;;;;1999.90;999.90;;;;;;;0.59;100.00;95265.75;5066982;28;20174;-65
2023/01/25 05:26:59;;;;;;;1999.90;999.90;;;;;;;0.62;100.00;95265.81;5067429;28;20218;-65
2023/01/25 05:27:55;;;;;;;1999.90;999.90;;;;;;;0.71;100.00;95269.16;5084277;28;20156;-64
2023/01/25 05:30:20;;;;;;;1999.90;999.90;;;;;;;0.61;100.00;95272.31;5066804;28;20175;-64
2023/01/25 05:32:47;;;;;;;1999.90;999.90;;;;;;;0.55;100.00;95286.34;5067325;28;20167;-63
2023/01/25 05:35:12;;;;;;;1999.90;999.90;;;;;;;0.52;100.00;95282.44;5066846;28;20195;-64
2023/01/25 05:37:38;;;;;;;1999.90;999.90;;;;;;;0.58;100.00;95275.69;5066657;28;20172;-63
2023/01/25 05:40:04;;;;;;;1999.90;999.90;;;;;;;0.62;100.00;95276.56;5066862;28;20476;-64
2023/01/25 05:42:29;;;;;;;1999.90;999.90;;;;;;;0.61;100.00;95275.00;5068630;28;20170;-63
2023/01/25 05:44:54;;;;;;;1999.90;999.90;;;;;;;0.57;100.00;95287.56;5070542;28;20172;-64
2023/01/25 05:47:20;;;;;;;1999.90;999.90;;;;;;;0.57;100.00;95290.25;5071416;28;20171;-65
2023/01/25 05:49:45;;;;;;;1999.90;999.90;;;;;;;0.51;100.00;95294.28;5070780;28;20215;-64
2023/01/25 05:52:15;;;;;;;1999.90;999.90;;;;;;;0.58;100.00;95291.81;5070542;28;20243;-64
2023/01/25 05:54:41;;;;;;;1999.90;999.90;;;;;;;0.58;100.00;95288.34;5070807;28;20210;-65
2023/01/25 05:57:06;;;;;;;1999.90;999.90;;;;;;;0.58;100.00;95291.81;5070665;28;20168;-64
2023/01/25 05:59:31;;;;;;;1999.90;999.90;;;;;;;0.60;100.00;95289.56;5070456;28;20319;-64
2023/01/25 06:01:57;;;;;;;1999.90;999.90;;;;;;;0.54;100.00;95301.66;5070307;28;20175;-64
2023/01/25 06:04:22;;;;;;;1999.90;999.90;;;;;;;0.47;100.00;95285.34;5070304;28;20181;-65
2023/01/25 06:06:47;;;;;;;1999.90;999.90;;;;;;;0.47;100.00;95298.78;5070833;28;20243;-65
2023/01/25 06:09:13;;;;;;;1999.90;999.90;;;;;;;0.50;100.00;95300.78;5070213;28;20397;-64
2023/01/25 06:11:38;;;;;;;1999.90;999.90;;;;;;;0.54;100.00;95301.66;5070551;28;20179;-64
2023/01/25 06:14:04;;;;;;;1999.90;999.90;;;;;;;0.54;100.00;95301.66;5071011;28;20178;-62
2023/01/25 06:16:29;;;;;;;1999.90;999.90;;;;;;;0.50;100.00;95295.44;5070193;28;20174;-63
2023/01/25 06:18:55;;;;;;;1999.90;999.90;;;;;;;0.52;100.00;95301.25;5069838;28;20205;-63
2023/01/25 06:21:20;;;;;;;1999.90;999.90;;;;;;;0.44;100.00;95307.53;5069869;28;20174;-63
2023/01/25 06:23:45;;;;;;;1999.90;999.90;;;;;;;0.43;100.00;95310.56;5070393;28;20182;-63
2023/01/25 06:26:13;;;;;;;1999.90;999.90;;;;;;;0.44;100.00;95312.13;5069910;28;20175;-63
2023/01/25 06:28:39;;;;;;;1999.90;999.90;;;;;;;0.46;100.00;95310.66;5069854;28;20180;-63
2023/01/25 06:31:10;;;;;;;1999.90;999.90;;;;;;;0.45;100.00;95319.84;5069693;28;20206;-64
2023/01/25 06:33:36;;;;;;;1999.90;999.90;;;;;;;0.40;100.00;95322.00;5069785;28;20173;-63
2023/01/25 06:36:08;;;;;;;1999.90;999.90;;;;;;;0.43;100.00;95315.94;5070050;28;20450;-63
2023/01/25 06:38:33;;;;;;;1999.90;999.90;;;;;;;0.49;100.00;95326.09;5069487;28;20321;-63
2023/01/25 06:41:04;;;;;;;1999.90;999.90;;;;;;;0.40;100.00;95332.72;5069291;28;20176;-63
2023/01/25 06:43:31;;;;;;;1999.90;999.90;;;;;;;0.36;100.00;95340.66;5069370;28;20166;-63
2023/01/25 06:46:01;;;;;;;1999.90;999.90;;;;;;;0.34;100.00;95356.34;5069318;28;20175;-63
2023/01/25 06:48:28;;;;;;;1999.90;999.90;;;;;;;0.35;100.00;95346.38;5069505;28;20182;-64
2023/01/25 06:50:56;;;;;;;1999.90;999.90;;;;;;;0.30;100.00;95355.47;5069516;28;20229;-63
2023/01/25 06:53:25;;;;;;;1999.90;999.90;;;;;;;0.37;100.00;95350.31;5068287;28;20199;-66
2023/01/25 06:56:02;;;;;;;1999.90;999.90;;;;;;;0.37;100.00;95355.69;5069658;28;20179;-62
2023/01/25 06:58:29;;;;;;;1999.90;999.90;;;;;;;0.42;100.00;95351.94;5069488;28;20209;-63
2023/01/25 07:01:03;;;;;;;1999.90;999.90;;;;;;;0.37;100.00;95366.41;5069158;28;20176;-63
2023/01/25 07:03:29;;;;;;;1999.90;999.90;;;;;;;0.36;100.00;95370.19;5069424;28;20164;-63
2023/01/25 07:06:04;;;;;;;1999.90;999.90;;;;;;;0.37;100.00;95366.41;5069528;28;20172;-63
2023/01/25 07:08:30;;;;;;;1999.90;999.90;;;;;;;0.41;100.00;95378.03;5069123;28;20171;-63
2023/01/25 07:10:57;;;;;;;1999.90;999.90;;;;;;;0.47;100.00;95378.59;5068962;28;20169;-63
2023/01/25 07:13:25;;;;;;;1999.90;999.90;;;;;;;0.47;100.00;95392.78;5068957;28;20242;-64
2023/01/25 07:16:02;;;;;;;1999.90;999.90;;;;;;;0.47;100.00;95402.75;5069132;28;20467;-63
2023/01/25 07:18:29;;;;;;;1999.90;999.90;;;;;;;0.33;100.00;95413.84;5069092;28;20457;-64
2023/01/25 07:21:00;;;;;;;1999.90;999.90;;;;;;;0.32;100.00;95422.25;5069161;28;20408;-63
2023/01/25 07:23:26;;;;;;;1999.90;999.90;;;;;;;0.35;100.00;95427.72;5069160;28;20200;-64
2023/01/25 07:25:52;;;;;;;1999.90;999.90;;;;;;;0.31;100.00;95439.44;5069158;28;20179;-63
2023/01/25 07:28:17;;;;;;;1999.90;999.90;;;;;;;0.28;100.00;95448.97;5069395;28;20199;-63
2023/01/25 07:30:43;;;;;;;1999.90;999.90;;;;;;;0.26;100.00;95443.16;5068761;28;20281;-64
2023/01/25 07:33:10;;;;;;;1999.90;999.90;;;;;;;0.28;100.00;95458.94;5069249;28;20185;-64
2023/01/25 07:35:36;;;;;;;1999.90;999.90;;;;;;;0.36;100.00;95455.34;5068409;28;20180;-64
2023/01/25 07:38:01;;;;;;;1999.90;999.90;;;;;;;0.36;100.00;95461.50;5069062;28;20202;-63
2023/01/25 07:40:27;;;;;;;1999.90;999.90;;;;;;;0.36;100.00;95471.47;5068316;28;20246;-64
2023/01/25 07:42:53;;;;;;;1999.90;999.90;;;;;;;0.33;100.00;95472.94;5068268;28;20180;-64
2023/01/25 07:45:19;;;;;;;1999.90;999.90;;;;;;;0.41;100.00;95473.91;5068264;28;20248;-64
2023/01/25 07:47:45;;;;;;;1999.90;999.90;;;;;;;0.40;100.00;95475.81;5068708;28;20221;-64
2023/01/25 07:50:11;;;;;;;1999.90;999.90;;;;;;;0.45;100.00;95486.34;5068260;28;20215;-64
2023/01/25 07:52:36;;;;;;;1999.90;999.90;;;;;;;0.47;100.00;95484.09;5068390;28;20183;-63
2023/01/25 07:55:02;;;;;;;1999.90;999.90;;;;;;;0.41;100.00;95490.81;5068423;28;20203;-66
2023/01/25 07:57:27;;;;;;;1999.90;999.90;;;;;;;0.45;100.00;95491.72;5068176;28;20172;-64
2023/01/25 07:59:53;;;;;;;1999.90;999.90;;;;;;;0.40;100.00;95505.34;5068522;28;20255;-64
2023/01/25 08:02:19;;;;;;;1999.90;999.90;;;;;;;0.40;100.00;95499.97;5068195;28;20169;-64
2023/01/25 08:04:44;;;;;;;1999.90;999.90;;;;;;;0.37;100.00;95516.78;5067666;28;20236;-63
2023/01/25 08:07:11;;;;;;;1999.90;999.90;;;;;;;0.43;100.00;95510.03;5068077;28;20174;-64
2023/01/25 08:09:36;;;;;;;1999.90;999.90;;;;;;;0.56;100.00;95508.94;5067803;28;20182;-64
2023/01/25 08:12:02;;;;;;;1999.90;999.90;;;;;;;0.41;100.00;95527.63;5067848;28;20175;-64
2023/01/25 08:14:27;;;;;;;1999.90;999.90;;;;;;;0.45;100.00;95528.50;5067800;28;20244;-64
2023/01/25 08:16:53;;;;;;;1999.90;999.90;;;;;;;0.45;100.00;95526.63;5067731;28;20246;-64
2023/01/25 08:19:19;;;;;;;1999.90;999.90;;;;;;;0.51;100.00;95527.94;5068059;28;20234;-63
2023/01/25 08:21:44;;;;;;;1999.90;999.90;;;;;;;0.50;100.00;95536.38;5068178;28;20183;-63
2023/01/25 08:24:10;;;;;;;1999.90;999.90;;;;;;;0.55;100.00;95528.06;5068159;28;20169;-63
2023/01/25 08:26:36;;;;;;;1999.90;999.90;;;;;;;0.54;100.00;95538.03;5067661;28;20175;-63
2023/01/25 08:29:02;;;;;;;1999.90;999.90;;;;;;;0.55;100.00;95534.25;5068115;28;20183;-63
2023/01/25 08:31:30;;;;;;;1999.90;999.90;;;;;;;0.54;100.00;95545.31;5067982;28;20192;-64
2023/01/25 08:33:56;;;;;;;1999.90;999.90;;;;;;;0.56;100.00;95553.81;5067618;28;20206;-64
2023/01/25 08:36:23;;;;;;;1999.90;999.90;;;;;;;0.63;100.00;95549.47;5067743;28;20172;-64
2023/01/25 08:38:53;;;;;;;1999.90;999.90;;;;;;;0.64;100.00;95548.31;5068067;28;20196;-64
2023/01/25 08:41:19;;;;;;;1999.90;999.90;;;;;;;0.60;100.00;95557.38;5067482;28;20168;-64
2023/01/25 08:43:45;;;;;;;1999.90;999.90;;;;;;;0.63;100.00;95562.88;5067725;28;20176;-64
2023/01/25 08:46:12;;;;;;;1999.90;999.90;;;;;;;0.70;100.00;95562.31;5067179;28;20178;-64
2023/01/25 08:48:37;;;;;;;1999.90;999.90;;;;;;;0.63;100.00;95557.50;5067413;28;20217;-64
2023/01/25 08:51:06;;;;;;;1999.90;999.90;;;;;;;0.83;100.00;95561.97;5067877;28;20219;-65
2023/01/25 08:53:32;;;;;;;1999.90;999.90;;;;;;;0.70;100.00;95568.50;5066954;28;20195;-63
2023/01/25 08:56:05;;;;;;;1999.90;999.90;;;;;;;0.73;100.00;95573.16;5066979;28;20175;-64
2023/01/25 08:58:31;;;;;;;1999.90;999.90;;;;;;;0.61;100.00;95591.97;5067736;28;20205;-64
2023/01/25 09:01:02;;;;;;;1999.90;999.90;;;;;;;0.66;100.00;95586.41;5067417;28;20186;-64
2023/01/25 09:03:27;;;;;;;1999.90;999.90;;;;;;;0.62;100.00;95588.16;5067537;28;20167;-64
2023/01/25 09:05:53;;;;;;;1999.90;999.90;;;;;;;0.58;100.00;95603.38;5067020;28;20201;-64
2023/01/25 09:08:18;;;;;;;1999.90;999.90;;;;;;;0.60;100.00;95593.09;5066926;28;20246;-63
2023/01/25 09:10:44;;;;;;;1999.90;999.90;;;;;;;0.62;100.00;95588.16;5067435;28;20193;-64
2023/01/25 09:13:09;;;;;;;1999.90;999.90;;;;;;;0.58;100.00;95591.88;5066950;28;20171;-64
2023/01/25 09:15:34;;;;;;;1999.90;999.90;;;;;;;0.68;100.00;95580.66;5067241;28;20197;-64
2023/01/25 09:18:00;;;;;;;1999.90;999.90;;;;;;;0.74;100.00;95588.19;5066355;28;20227;-64
2023/01/25 09:20:25;;;;;;;1999.90;999.90;;;;;;;0.68;100.00;95597.56;5066893;28;20401;-64
2023/01/25 09:22:50;;;;;;;1999.90;999.90;;;;;;;0.75;100.00;95592.44;5066821;28;20176;-64
2023/01/25 09:25:16;;;;;;;1999.90;999.90;;;;;;;0.79;100.00;95587.94;5067091;28;20400;-65
2023/01/25 09:27:41;;;;;;;1999.90;999.90;;;;;;;0.65;100.00;95606.31;5066825;28;20176;-65
2023/01/25 09:30:09;;;;;;;1999.90;999.90;;;;;;;0.65;100.00;95609.00;5066858;28;20192;-64
2023/01/25 09:32:34;;;;;;;1999.90;999.90;;;;;;;0.65;100.00;95600.94;5067551;28;20171;-65
2023/01/25 09:35:00;;;;;;;1999.90;999.90;;;;;;;0.64;100.00;95602.06;5067583;28;20208;-63
2023/01/25 09:37:25;;;;;;;1999.90;999.90;;;;;;;0.71;100.00;95613.03;5066947;28;20205;-65
2023/01/25 09:39:50;;;;;;;1999.90;999.90;;;;;;;0.61;100.00;95613.47;5067043;28;20217;-66
2023/01/25 09:42:17;;;;;;;1999.90;999.90;;;;;;;0.59;100.00;95604.97;5066871;28;20169;-65
2023/01/25 09:44:55;;;;;;;1999.90;999.90;;;;;;;0.75;100.00;95600.50;5066683;28;20222;-66
2023/01/25 09:47:37;;;;;;;1999.90;999.90;;;;;;;0.66;100.00;95599.84;5067397;28;20244;-65
2023/01/25 09:50:20;;;;;;;1999.90;999.90;;;;;;;0.72;100.00;95586.97;5066563;28;20221;-65
2023/01/25 09:52:49;;;;;;;1999.90;999.90;;;;;;;0.69;100.00;95603.75;5067342;28;20207;-65
2023/01/25 09:55:18;;;;;;;1999.90;999.90;;;;;;;0.72;100.00;95597.72;5066638;28;20177;-66
2023/01/25 09:57:47;;;;;;;1999.90;999.90;;;;;;;0.65;100.00;95602.84;5067052;28;20166;-66
2023/01/25 10:00:19;;;;;;;1999.90;999.90;;;;;;;0.81;100.00;95596.47;5066285;28;20170;-66
2023/01/25 10:03:04;;;;;;;1999.90;999.90;;;;;;;0.86;100.00;95590.88;5067108;28;20173;-66
2023/01/25 10:05:41;;;;;;;1999.90;999.90;;;;;;;0.75;100.00;95597.81;5067073;28;20210;-64
2023/01/25 10:08:38;;;;;;;1999.90;999.90;;;;;;;0.86;100.00;95588.19;5066770;28;20173;-63
2023/01/25 10:11:23;;;;;;;1999.90;999.90;;;;;;;0.72;100.00;95595.78;5066074;28;20183;-65
2023/01/25 10:13:49;;;;;;;1999.90;999.90;;;;;;;0.86;100.00;95587.38;5066640;28;20194;-66
2023/01/25 10:16:45;;;;;;;1999.90;999.90;;;;;;;0.67;100.00;95590.66;5066280;28;20170;-65
2023/01/25 10:19:13;;;;;;;1999.90;999.90;;;;;;;0.70;100.00;95598.03;5066618;28;20273;-63
2023/01/25 10:21:53;;;;;;;1999.90;999.90;;;;;;;0.76;100.00;95599.38;5066774;28;20405;-64
2023/01/25 10:24:25;;;;;;;1999.90;999.90;;;;;;;0.60;100.00;95601.16;5067010;28;20176;-64
2023/01/25 10:26:55;;;;;;;1999.90;999.90;;;;;;;0.74;100.00;95585.50;5066497;28;20448;-64
2023/01/25 10:29:27;;;;;;;1999.90;999.90;;;;;;;0.84;100.00;95585.03;5068469;28;20248;-64
2023/01/25 10:32:13;;;;;;;1999.90;999.90;;;;;;;0.72;100.00;95586.97;5069979;28;20173;-65
2023/01/25 10:34:46;;;;;;;1999.90;999.90;;;;;;;0.75;100.00;95597.81;5069759;28;20184;-65
2023/01/25 10:37:34;;;;;;;1999.90;999.90;;;;;;;0.83;100.00;95599.59;5069857;28;20176;-64
2023/01/25 10:40:13;;;;;;;1999.90;999.90;;;;;;;0.93;100.00;95590.28;5068938;28;20205;-65
2023/01/25 10:43:05;;;;;;;1999.90;999.90;;;;;;;0.87;100.00;95600.50;5070132;28;20188;-64
2023/01/25 10:45:30;;;;;;;1999.90;999.90;;;;;;;0.83;100.00;95593.47;5056978;28;20184;-64
2023/01/25 10:48:07;;;;;;;1999.90;999.90;;;;;;;0.77;100.00;95606.34;5070084;28;20176;-64
2023/01/25 10:50:41;;;;;;;1999.90;999.90;;;;;;;0.81;100.00;95595.69;5066212;28;20226;-64
2023/01/25 10:53:30;;;;;;;1999.90;999.90;;;;;;;0.92;100.00;95594.13;5066095;28;20176;-64
2023/01/25 10:56:10;;;;;;;1999.90;999.90;;;;;;;0.79;100.00;95598.69;5066363;28;20169;-64
2023/01/25 10:58:39;;;;;;;1999.90;999.90;;;;;;;0.80;100.00;95588.75;5066375;28;20200;-65